createdAt,value
2023-02-16T00:00:29.261Z,-2.00
2023-02-16T00:02:56.590Z,-2.00
2023-02-16T00:05:28.994Z,-2.00
2023-02-16T00:07:58.066Z,-2.00
2023-02-16T00:10:31.398Z,-2.00
2023-02-16T00:13:17.263Z,-2.00
2023-02-16T00:15:44.354Z,-2.00
2023-02-16T00:18:22.048Z,-2.00
2023-02-16T00:20:49.843Z,-2.00
2023-02-16T00:23:17.102Z,-2.00
2023-02-16T00:25:44.158Z,-2.10
2023-02-16T00:28:19.651Z,-2.10
2023-02-16T00:30:47.617Z,-2.10
2023-02-16T00:33:21.673Z,-2.10
2023-02-16T00:35:49.380Z,-2.10
2023-02-16T00:43:27.151Z,-2.10
2023-02-16T00:48:24.239Z,-2.10
2023-02-16T00:58:30.735Z,-2.10
2023-02-16T01:01:08.723Z,-2.10
2023-02-16T01:03:36.937Z,-2.10
2023-02-16T01:11:39.397Z,-2.20
2023-02-16T01:14:09.244Z,-2.20
2023-02-16T01:16:41.431Z,-2.20
2023-02-16T01:19:12.425Z,-2.20
2023-02-16T01:21:39.978Z,-2.20
2023-02-16T01:26:42.805Z,-2.10
2023-02-16T01:29:21.941Z,-2.00
2023-02-16T01:31:50.213Z,-1.60
2023-02-16T01:36:47.974Z,-2.00
2023-02-16T01:39:19.439Z,-2.10
2023-02-16T01:42:31.452Z,-2.10
2023-02-16T01:45:09.926Z,-2.10
2023-02-16T01:47:42.596Z,-2.00
2023-02-16T01:50:26.277Z,-2.10
2023-02-16T01:53:14.174Z,-2.10
2023-02-16T01:55:49.941Z,-2.10
2023-02-16T01:58:37.603Z,-2.20
2023-02-16T02:03:53.962Z,-2.20
2023-02-16T02:06:35.133Z,-2.20
2023-02-16T02:09:17.871Z,-2.20
2023-02-16T02:12:10.959Z,-2.10
2023-02-16T02:14:40.577Z,-2.20
2023-02-16T02:17:17.036Z,-2.20
2023-02-16T02:20:45.860Z,-2.20
2023-02-16T02:23:47.012Z,-2.10
2023-02-16T02:27:01.252Z,-2.10
2023-02-16T02:30:09.850Z,-2.30
2023-02-16T02:36:33.809Z,-2.30
2023-02-16T02:39:48.048Z,-2.30
2023-02-16T02:42:50.088Z,-2.20
2023-02-16T02:45:53.911Z,-2.20
2023-02-16T02:54:12.352Z,-2.10
2023-02-16T02:57:26.585Z,-2.10
2023-02-16T03:00:25.273Z,-2.10
2023-02-16T03:03:24.269Z,-2.10
2023-02-16T03:06:12.736Z,-2.10
2023-02-16T03:08:46.214Z,-2.10
2023-02-16T03:11:42.665Z,-2.10
2023-02-16T03:14:34.148Z,-2.10
2023-02-16T03:17:33.367Z,-2.00
2023-02-16T03:20:25.589Z,-2.10
2023-02-16T03:25:59.451Z,-2.20
2023-02-16T03:28:48.934Z,-2.20
2023-02-16T03:31:25.393Z,-2.30
2023-02-16T03:33:54.507Z,-2.30
2023-02-16T03:36:30.254Z,-2.40
2023-02-16T03:39:01.242Z,-2.20
2023-02-16T03:41:35.521Z,-2.20
2023-02-16T03:44:02.542Z,-2.20
2023-02-16T04:08:37.135Z,-2.10
2023-02-16T04:11:24.391Z,-2.10
2023-02-16T04:26:08.768Z,-2.20
2023-02-16T04:35:58.625Z,-1.80
2023-02-16T04:38:26.018Z,-1.70
2023-02-16T04:58:05.038Z,-1.70
2023-02-16T05:07:58.427Z,-1.50
2023-02-16T05:15:39.124Z,-1.40
2023-02-16T05:18:06.205Z,-1.40
2023-02-16T05:23:19.009Z,-1.30
2023-02-16T05:25:45.997Z,-1.30
2023-02-16T05:28:12.997Z,-1.40
2023-02-16T05:38:02.651Z,-1.40
2023-02-16T05:42:57.189Z,-1.30
2023-02-16T05:45:24.180Z,-1.30
2023-02-16T05:52:49.317Z,-1.40
2023-02-16T05:57:43.740Z,-1.70
2023-02-16T06:00:12.088Z,-1.80
2023-02-16T06:02:39.136Z,-1.80
2023-02-16T06:07:33.968Z,-1.90
2023-02-16T06:14:55.906Z,-1.90
2023-02-16T06:19:50.278Z,-1.80
2023-02-16T06:27:12.517Z,-1.60
2023-02-16T06:34:34.493Z,-1.70
2023-02-16T06:37:01.544Z,-1.70
2023-02-16T06:39:28.597Z,-1.70
2023-02-16T06:41:55.608Z,-1.70
2023-02-16T06:44:22.561Z,-1.70
2023-02-16T06:46:49.700Z,-1.70
2023-02-16T06:49:19.942Z,-1.70
2023-02-16T06:51:49.491Z,-1.60
2023-02-16T06:59:13.170Z,-1.50
2023-02-16T07:16:25.844Z,-1.30
2023-02-16T07:31:14.640Z,-1.10
2023-02-16T07:36:11.936Z,-1.10
2023-02-16T07:38:42.926Z,-1.00
2023-02-16T07:43:39.503Z,-0.90
2023-02-16T07:48:34.359Z,-0.90
2023-02-16T07:55:57.039Z,-0.60
2023-02-16T08:01:17.356Z,-0.40
2023-02-16T08:03:44.428Z,-0.30
2023-02-16T08:08:39.806Z,-0.10
2023-02-16T08:11:23.881Z,-0.10
2023-02-16T08:13:52.608Z,0.00
2023-02-16T08:16:26.393Z,0.20
2023-02-16T08:21:32.576Z,0.20
2023-02-16T08:24:06.616Z,0.30
2023-02-16T08:26:41.137Z,0.40
2023-02-16T08:29:10.160Z,0.40
2023-02-16T08:34:06.859Z,0.50
2023-02-16T08:36:38.337Z,0.40
2023-02-16T08:39:14.922Z,0.40
2023-02-16T08:41:45.237Z,0.50
2023-02-16T08:46:46.435Z,0.70
2023-02-16T08:49:18.498Z,0.90
2023-02-16T08:51:52.006Z,0.90
2023-02-16T08:54:27.118Z,1.10
2023-02-16T08:56:55.519Z,1.30
2023-02-16T08:59:27.251Z,1.40
2023-02-16T09:03:55.430Z,3.30
2023-02-16T09:08:56.944Z,1.90
2023-02-16T09:11:25.415Z,2.10
2023-02-16T09:16:24.361Z,2.30
2023-02-16T09:21:25.235Z,2.40
2023-02-16T09:23:56.352Z,2.50
2023-02-16T09:26:25.592Z,2.60
2023-02-16T09:31:30.857Z,2.60
2023-02-16T09:34:10.463Z,2.60
2023-02-16T09:36:38.398Z,2.90
2023-02-16T09:41:46.317Z,3.20
2023-02-16T09:44:48.086Z,3.30
2023-02-16T09:47:31.346Z,3.40
2023-02-16T09:50:14.015Z,3.70
2023-02-16T09:53:08.567Z,3.90
2023-02-16T09:56:16.687Z,4.30
2023-02-16T09:58:59.589Z,4.90
2023-02-16T10:01:46.893Z,5.20
2023-02-16T10:04:47.395Z,5.60
2023-02-16T10:08:02.730Z,6.00
2023-02-16T10:10:50.199Z,6.10
2023-02-16T10:13:47.008Z,6.60
2023-02-16T10:16:25.476Z,6.90
2023-02-16T10:18:56.588Z,7.40
2023-02-16T10:21:31.210Z,7.80
2023-02-16T10:24:05.563Z,8.00
2023-02-16T10:26:42.801Z,8.20
2023-02-16T10:29:22.005Z,8.70
2023-02-16T10:32:16.937Z,8.40
2023-02-16T10:34:47.051Z,8.70
2023-02-16T10:37:56.185Z,9.00
2023-02-16T10:40:56.154Z,9.00
2023-02-16T10:43:48.817Z,9.50
2023-02-16T10:46:26.214Z,9.60
2023-02-16T10:48:55.747Z,10.00
2023-02-16T10:51:32.366Z,9.70
2023-02-16T10:54:15.655Z,10.00
2023-02-16T10:56:59.413Z,10.30
2023-02-16T10:59:45.040Z,10.70
2023-02-16T11:02:24.386Z,10.10
2023-02-16T11:04:57.897Z,10.50
2023-02-16T11:07:28.725Z,10.30
2023-02-16T11:10:02.832Z,10.40
2023-02-16T11:12:42.011Z,10.40
2023-02-16T11:15:16.559Z,10.40
2023-02-16T11:18:07.976Z,10.40
2023-02-16T11:20:46.604Z,10.80
2023-02-16T11:23:33.463Z,10.90
2023-02-16T11:26:12.718Z,11.00
2023-02-16T11:31:39.733Z,11.20
2023-02-16T11:34:49.473Z,11.30
2023-02-16T11:37:48.974Z,11.50
2023-02-16T11:40:30.671Z,11.40
2023-02-16T11:43:01.680Z,11.50
2023-02-16T11:48:28.575Z,11.90
2023-02-16T11:51:15.134Z,11.90
2023-02-16T11:53:44.574Z,12.20
2023-02-16T11:56:24.535Z,12.90
2023-02-16T11:59:21.823Z,12.60
2023-02-16T12:02:40.493Z,12.70
2023-02-16T12:05:47.198Z,12.80
2023-02-16T12:09:13.182Z,12.70
2023-02-16T12:12:13.480Z,13.10
2023-02-16T12:15:21.315Z,13.40
2023-02-16T12:18:29.023Z,12.80
2023-02-16T12:21:42.175Z,12.60
2023-02-16T12:24:35.834Z,12.90
2023-02-16T12:27:16.690Z,12.90
2023-02-16T12:30:11.770Z,13.40
2023-02-16T12:33:07.867Z,13.20
2023-02-16T12:36:07.874Z,13.00
2023-02-16T12:39:03.332Z,13.00
2023-02-16T12:42:34.453Z,13.40
2023-02-16T12:45:19.601Z,12.80
2023-02-16T12:48:37.207Z,12.80
2023-02-16T12:51:16.053Z,12.50
2023-02-16T12:54:39.711Z,12.80
2023-02-16T12:57:17.734Z,12.60
2023-02-16T12:59:56.245Z,13.20
2023-02-16T13:02:53.342Z,13.10
2023-02-16T13:05:32.557Z,13.60
2023-02-16T13:08:30.002Z,13.40
2023-02-16T13:11:24.685Z,13.40
2023-02-16T13:13:59.409Z,13.50
2023-02-16T13:16:53.748Z,13.70
2023-02-16T13:19:21.374Z,14.00
2023-02-16T13:21:54.304Z,13.80
2023-02-16T13:27:50.921Z,14.10
2023-02-16T13:31:12.541Z,13.60
2023-02-16T13:34:32.887Z,13.60
2023-02-16T13:37:17.944Z,14.10
2023-02-16T13:40:10.684Z,14.10
2023-02-16T13:43:13.634Z,13.70
2023-02-16T13:45:46.745Z,14.60
2023-02-16T13:48:31.517Z,14.20
2023-02-16T13:51:16.570Z,14.20
2023-02-16T13:54:01.342Z,14.20
2023-02-16T13:56:36.266Z,13.80
2023-02-16T13:59:38.399Z,13.10
2023-02-16T14:02:13.124Z,13.90
2023-02-16T14:09:37.811Z,13.80
2023-02-16T14:12:18.937Z,14.00
2023-02-16T14:15:00.044Z,13.90
2023-02-16T14:17:37.563Z,14.50
2023-02-16T14:20:13.862Z,15.40
2023-02-16T14:22:43.716Z,16.10
2023-02-16T14:25:22.811Z,15.90
2023-02-16T14:28:21.462Z,15.60
2023-02-16T14:31:22.657Z,15.40
2023-02-16T14:34:12.436Z,15.90
2023-02-16T14:37:16.074Z,15.80
2023-02-16T14:40:06.897Z,15.80
2023-02-16T14:42:36.380Z,15.60
2023-02-16T14:45:21.348Z,15.80
2023-02-16T14:48:37.116Z,16.70
2023-02-16T14:51:59.503Z,16.60
2023-02-16T14:55:07.669Z,15.20
2023-02-16T14:58:31.079Z,15.20
2023-02-16T15:01:16.159Z,16.10
2023-02-16T15:03:54.845Z,16.60
2023-02-16T15:06:43.803Z,15.60
2023-02-16T15:09:33.947Z,14.90
2023-02-16T15:12:24.322Z,13.60
2023-02-16T15:14:59.322Z,12.70
2023-02-16T15:17:35.457Z,12.40
2023-02-16T15:20:54.478Z,11.90
2023-02-16T15:23:34.945Z,11.60
2023-02-16T15:26:14.772Z,11.30
2023-02-16T15:28:44.681Z,11.40
2023-02-16T15:31:18.658Z,11.30
2023-02-16T15:34:07.891Z,11.30
2023-02-16T15:36:43.245Z,11.30
2023-02-16T15:39:48.202Z,11.50
2023-02-16T15:42:28.231Z,11.90
2023-02-16T15:44:56.924Z,12.30
2023-02-16T15:47:27.197Z,12.10
2023-02-16T15:49:55.007Z,11.70
2023-02-16T15:52:37.102Z,11.40
2023-02-16T15:55:09.058Z,11.00
2023-02-16T15:57:40.535Z,10.70
2023-02-16T16:00:20.774Z,10.50
2023-02-16T16:03:00.491Z,10.20
2023-02-16T16:05:36.119Z,10.10
2023-02-16T16:08:04.544Z,10.00
2023-02-16T16:10:39.080Z,9.90
2023-02-16T16:13:17.988Z,9.80
2023-02-16T16:15:49.244Z,9.70
2023-02-16T16:18:51.034Z,9.60
2023-02-16T16:21:33.938Z,9.40
2023-02-16T16:24:09.730Z,9.30
2023-02-16T16:26:55.481Z,9.20
2023-02-16T16:29:47.568Z,9.10
2023-02-16T16:32:29.641Z,8.90
2023-02-16T16:37:37.524Z,8.50
2023-02-16T16:40:18.174Z,8.30
2023-02-16T16:43:19.066Z,8.10
2023-02-16T16:45:54.352Z,7.90
2023-02-16T16:48:35.733Z,7.70
2023-02-16T16:51:22.596Z,7.60
2023-02-16T16:54:24.742Z,7.40
2023-02-16T16:59:19.436Z,7.10
2023-02-16T17:04:17.353Z,6.90
2023-02-16T17:09:11.804Z,6.60
2023-02-16T17:11:39.006Z,6.60
2023-02-16T17:14:16.992Z,6.50
2023-02-16T17:16:48.406Z,6.40
2023-02-16T17:19:22.947Z,6.40
2023-02-16T17:21:50.273Z,6.30
2023-02-16T17:34:08.593Z,6.20
2023-02-16T17:46:28.209Z,6.00
2023-02-16T17:51:25.705Z,5.80
2023-02-16T17:56:24.515Z,5.90
2023-02-16T18:01:20.814Z,5.90
2023-02-16T18:06:24.381Z,5.90
2023-02-16T18:11:19.262Z,5.90
2023-02-16T18:16:21.605Z,5.80
2023-02-16T18:18:48.815Z,5.70
2023-02-16T18:21:15.899Z,5.60
2023-02-16T18:23:43.020Z,5.50
2023-02-16T18:26:15.309Z,5.50
2023-02-16T18:33:39.097Z,5.40
2023-02-16T18:36:07.247Z,5.40
2023-02-16T18:41:02.044Z,5.20
2023-02-16T18:43:29.197Z,5.10
2023-02-16T18:45:56.351Z,5.10
2023-02-16T18:48:23.992Z,5.10
2023-02-16T18:53:18.580Z,5.20
2023-02-16T18:55:45.599Z,5.20
2023-02-16T18:58:15.080Z,5.20
2023-02-16T19:00:42.643Z,5.30
2023-02-16T19:08:05.051Z,5.30
2023-02-16T19:10:33.335Z,5.30
2023-02-16T19:13:01.914Z,5.30
2023-02-16T19:15:29.317Z,5.30
2023-02-16T19:17:56.565Z,5.30
2023-02-16T19:20:25.505Z,5.40
2023-02-16T19:25:21.178Z,5.50
2023-02-16T19:27:48.870Z,5.50
2023-02-16T19:32:46.568Z,5.50
2023-02-16T19:35:14.112Z,5.50
2023-02-16T19:37:41.511Z,5.50
2023-02-16T19:40:11.743Z,5.50
2023-02-16T19:42:39.662Z,5.50
2023-02-16T19:45:07.751Z,5.40
2023-02-16T19:54:57.115Z,5.60
2023-02-16T20:02:19.210Z,5.60
2023-02-16T20:04:46.278Z,5.70
2023-02-16T20:07:13.289Z,5.70
2023-02-16T20:09:40.297Z,5.80
2023-02-16T20:24:24.940Z,5.80
2023-02-16T20:26:52.202Z,5.70
2023-02-16T20:31:55.097Z,5.70
2023-02-16T20:34:25.974Z,5.70
2023-02-16T20:36:54.201Z,5.70
2023-02-16T20:41:49.054Z,5.60
2023-02-16T20:46:45.596Z,5.60
2023-02-16T20:49:13.425Z,5.50
2023-02-16T20:59:43.983Z,5.50
2023-02-16T21:02:12.383Z,5.60
2023-02-16T21:04:40.682Z,5.60
2023-02-16T21:09:35.895Z,5.60
2023-02-16T21:12:02.998Z,5.60
2023-02-16T21:14:30.088Z,5.60
2023-02-16T21:24:19.974Z,5.50
2023-02-16T21:29:14.866Z,5.50
2023-02-16T21:31:41.949Z,5.40
2023-02-16T21:34:10.404Z,5.50
2023-02-16T21:39:06.338Z,5.50
2023-02-16T21:44:16.665Z,5.50
2023-02-16T21:46:47.465Z,5.60
2023-02-16T21:49:19.815Z,5.60
2023-02-16T21:51:48.910Z,5.50
2023-02-16T21:54:39.392Z,5.50
2023-02-16T21:57:06.459Z,5.50
2023-02-16T22:04:28.379Z,5.50
2023-02-16T22:09:24.077Z,5.50
2023-02-16T22:11:52.160Z,5.50
2023-02-16T22:14:19.390Z,5.50
2023-02-16T22:16:48.778Z,5.40
2023-02-16T22:19:18.924Z,5.40
2023-02-16T22:21:48.410Z,5.30
2023-02-16T22:24:17.820Z,5.20
2023-02-16T22:26:48.708Z,5.00
2023-02-16T22:29:16.365Z,4.90
2023-02-16T22:31:49.797Z,4.80
2023-02-16T22:34:21.179Z,4.70
2023-02-16T22:39:18.275Z,4.70
2023-02-16T22:49:10.888Z,4.90
2023-02-16T22:51:38.568Z,5.00
2023-02-16T22:54:06.575Z,5.00
2023-02-16T22:56:34.952Z,5.00
2023-02-16T22:59:02.144Z,5.00
2023-02-16T23:01:31.141Z,5.10
2023-02-16T23:04:00.937Z,5.10
2023-02-16T23:06:36.393Z,5.10
2023-02-16T23:09:18.497Z,5.20
2023-02-16T23:16:52.337Z,4.80
2023-02-16T23:19:26.706Z,4.70
2023-02-16T23:21:54.368Z,4.50
2023-02-16T23:24:23.557Z,4.40
2023-02-16T23:26:52.467Z,4.30
2023-02-16T23:29:19.567Z,4.10
2023-02-16T23:39:16.260Z,3.80
2023-02-16T23:41:43.921Z,3.70
2023-02-16T23:44:14.061Z,3.60
2023-02-16T23:54:03.601Z,3.40
2023-02-16T23:59:00.543Z,3.30
